Neenah, WI (54956)

10:33 AM CST on December 29, 2014 (GMT -0600)
Near Heckrodt Wetland Reserve | Change Station
CLOSE
Current Station
Personal Weather Station
Location: Menasha, WI
Elevation: 755 ft
Nearby Weather Stations

Elev 755 ft 44.21 °N, 88.43 °W | Updated 10 seconds ago

Partly Cloudy
Partly Cloudy
15.9 °F
Feels Like 8 °F
N
5.0
Wind Variable Wind from NNE
Gusts 11.0 mph

Today
High -- | Low -- °F
--% Chance of Precip.
Yesterday
High -- | Low -- °F
Precip. -- in
7:28 AM 4:23 PM
First Quarter, 60% visible
Pressure 30.43 in
Visibility 10.0 miles
Clouds Few 2500 ft
Scattered Clouds 10000 ft
Windchill 8 °F
Dew Point 9 °F
Humidity 73%
Rainfall 0.00 in
Snow Depth Not available.
UV 1 out of 12
Pollen .10 out of 12
Air Quality Not available.
Flu Activity Not available.
METAR KATW 291545Z 34009KT 10SM FEW025 SCT100 M09/M14 A3043

More Conditions Fewer Conditions

Pressure 30.43 in
Visibility 10.0 miles
Clouds Few 2500 ft
Scattered Clouds 10000 ft
Windchill 8 °F
Dew Point 9 °F
Humidity 73%
Rainfall 0.00 in
Snow Depth Not available.
UV 1 out of 12
Pollen .10 out of 12
Air Quality Not available.
Flu Activity Not available.
METAR KATW 291545Z 34009KT 10SM FEW025 SCT100 M09/M14 A3043

More Conditions Fewer Conditions

10-Day Weather Forecast

Almanac

Astronomy

Dec. 29, 2014 Rise Set
Actual Time
Civil Twilight
Nautical Twilight
Astronomical Twilight
Moon
Length of Visible Light
Length of Day
Tomorrow will be .
, % of the Moon is Illuminated

Today's Extremes

State Highs State Lows

Community

WunderPhotos

Upload Photos

1,781,641 photos uploaded!

WunderBlogs® & News

Nearby

Air Quality

  Air Quality AQ Index Pollutant
Not available.

Snow Depth

Station Depth Elevation

Earthquake Activity

City Distance Mag. Time & Date
Minimum magnitude displayed is 2.5.

Coastal Water Temperatures

Place Temperature

Nearby Weather Stations